This is the latest recevied weather packets stored in our database for station/object KG0HG. If no packets are shown the sender has not sent any weather packets the latest 10 day(s).
| Time | Temp. | Humidity | Pressure | Rain* | Wind** | Luminosity | Snow |
|---|---|---|---|---|---|---|---|
| 1777927650 | 27.78° C | 44% | 1002 hPa | 0 mm | - | 63 W/m² | - |
| 1777927348 | 27.78° C | 44% | 1002 hPa | 0 mm | - | 66 W/m² | - |
| 1777927047 | 27.78° C | 44% | 1002.3 hPa | 0 mm | - | 62 W/m² | - |
| 1777926744 | 27.78° C | 43% | 1002.2 hPa | 0 mm | - | 62 W/m² | - |
| 1777926444 | 27.78° C | 42% | 1002.4 hPa | 0 mm | - | 65 W/m² | - |
| 1777926141 | 27.78° C | 43% | 1002 hPa | 0 mm | - | 63 W/m² | - |
| 1777925838 | 27.78° C | 42% | 1002.4 hPa | 0 mm | - | 72 W/m² | - |
| 1777925535 | 27.22° C | 43% | 1002.4 hPa | 0 mm | - | 153 W/m² | - |
| 1777925233 | 26.67° C | 44% | 1002.4 hPa | 0 mm | - | 560 W/m² | - |
| 1777924929 | 27.22° C | 43% | 1002.6 hPa | 0 mm | - | 81 W/m² | - |
| 1777924626 | 27.22° C | 43% | 1002.4 hPa | 0 mm | - | 65 W/m² | - |
| 1777924321 | 27.22° C | 43% | 1002.3 hPa | 0 mm | - | 67 W/m² | - |
| 1777924019 | 27.22° C | 43% | 1002.4 hPa | 0 mm | - | 77 W/m² | - |
| 1777923714 | 27.22° C | 45% | 1002.4 hPa | 0 mm | - | 137 W/m² | - |
| 1777923411 | 27.22° C | 44% | 1002.3 hPa | 0 mm | - | 135 W/m² | - |
| 1777923109 | 27.22° C | 43% | 1002.4 hPa | 0 mm | - | 126 W/m² | - |
| 1777922807 | 26.67° C | 44% | 1002.2 hPa | 0 mm | - | 154 W/m² | - |
| 1777922505 | 26.11° C | 44% | 1002.6 hPa | 0 mm | - | 504 W/m² | - |
| 1777922203 | 26.11° C | 43% | 1002.7 hPa | 0 mm | - | 687 W/m² | - |
| 1777921899 | 26.11° C | 43% | 1002.7 hPa | 0 mm | - | 704 W/m² | - |
| 1777921595 | 25.56° C | 44% | 1002.7 hPa | 0 mm | - | 741 W/m² | - |
| 1777921292 | 26.11° C | 43% | 1002.6 hPa | 0 mm | - | 752 W/m² | - |
| 1777920988 | 26.11° C | 43% | 1002.7 hPa | 0 mm | - | 726 W/m² | - |
| 1777920685 | 25.56° C | 43% | 1002.8 hPa | 0 mm | - | 737 W/m² | - |
| 1777920381 | 25.56° C | 44% | 1002.7 hPa | 0 mm | - | 664 W/m² | - |
* Rain latest hour (hover to see other rain measurements)
** Current wind speed in m/s (hover to see current wind gust speed)